Weather at Deer Lake Airport

Public forecast

Using degrees Celsius for public forecast. Weather courtesy of forecast.io.

Current aviation weather report (METAR) for Deer Lake Airport

Retrieved 2021/03/09 08:00 UTC (1 hour ago):

CYDF 090800Z 05005KT 15SM SCT012 M20/M23 A3008 RMK SC4 SLP190

Aviation forecast (TAF) for Deer Lake Airport

Forecast is more than 6 hours old.

Retrieved 2021-03-09 02:45 UTC (6 hours ago):

TAF CYDF 090144Z 0902/0914 25005KT P6SM SCT020 TEMPO 0902/0914 BKN020 RMK NXT FCST BY 090800Z